createdAt,value
2023-03-06T00:01:18.844Z,4.66
2023-03-06T00:03:49.744Z,4.63
2023-03-06T00:06:20.770Z,4.63
2023-03-06T00:08:51.825Z,4.63
2023-03-06T00:11:22.799Z,4.62
2023-03-06T00:13:53.936Z,4.60
2023-03-06T00:16:25.064Z,4.58
2023-03-06T00:18:55.984Z,4.58
2023-03-06T00:21:26.918Z,4.58
2023-03-06T00:23:57.916Z,4.54
2023-03-06T00:26:28.754Z,4.54
2023-03-06T00:28:59.550Z,4.49
2023-03-06T00:31:30.567Z,4.48
2023-03-06T00:34:01.440Z,4.48
2023-03-06T00:36:32.310Z,4.48
2023-03-06T00:39:03.211Z,4.49
2023-03-06T00:41:34.144Z,4.46
2023-03-06T00:44:05.226Z,4.46
2023-03-06T00:46:36.031Z,4.45
2023-03-06T00:49:07.037Z,4.47
2023-03-06T00:51:38.065Z,4.49
2023-03-06T00:54:09.096Z,4.50
2023-03-06T00:56:39.840Z,4.51
2023-03-06T00:59:10.752Z,4.50
2023-03-06T01:01:41.887Z,4.49
2023-03-06T01:04:12.726Z,4.44
2023-03-06T01:06:43.686Z,4.42
2023-03-06T01:09:14.513Z,4.44
2023-03-06T01:11:45.705Z,4.46
2023-03-06T01:14:19.192Z,4.46
2023-03-06T01:16:50.368Z,4.44
2023-03-06T01:19:21.279Z,4.43
2023-03-06T01:21:52.129Z,4.37
2023-03-06T01:24:24.191Z,4.30
2023-03-06T01:26:55.074Z,4.25
2023-03-06T01:29:26.591Z,4.17
2023-03-06T01:31:57.513Z,4.09
2023-03-06T01:34:28.466Z,4.01
2023-03-06T01:36:59.413Z,3.99
2023-03-06T01:39:31.717Z,3.98
2023-03-06T01:42:02.533Z,3.95
2023-03-06T01:44:33.450Z,3.89
2023-03-06T01:47:04.179Z,3.84
2023-03-06T01:49:35.619Z,3.81
2023-03-06T01:52:07.697Z,3.83
2023-03-06T01:54:39.666Z,3.84
2023-03-06T01:57:11.614Z,3.86
2023-03-06T01:59:42.463Z,3.86
2023-03-06T02:02:13.566Z,3.87
2023-03-06T02:04:45.050Z,3.87
2023-03-06T02:07:16.007Z,3.86
2023-03-06T02:09:46.801Z,3.84
2023-03-06T02:12:18.966Z,3.84
2023-03-06T02:14:49.776Z,3.83
2023-03-06T02:17:21.340Z,3.81
2023-03-06T02:19:54.192Z,3.77
2023-03-06T02:22:25.174Z,3.74
2023-03-06T02:24:56.504Z,3.76
2023-03-06T02:27:27.390Z,3.79
2023-03-06T02:29:58.357Z,3.78
2023-03-06T02:32:29.240Z,3.76
2023-03-06T02:35:00.069Z,3.73
2023-03-06T02:37:31.022Z,3.72
2023-03-06T02:40:03.604Z,3.74
2023-03-06T02:42:34.358Z,3.74
2023-03-06T02:45:05.869Z,3.74
2023-03-06T02:47:36.812Z,3.76
2023-03-06T02:50:08.217Z,3.77
2023-03-06T02:52:39.083Z,3.77
2023-03-06T02:55:10.784Z,3.78
2023-03-06T02:57:41.846Z,3.79
2023-03-06T03:00:14.885Z,3.82
2023-03-06T03:02:45.763Z,3.86
2023-03-06T03:05:16.772Z,3.91
2023-03-06T03:07:47.723Z,3.92
2023-03-06T03:10:18.339Z,3.95
2023-03-06T03:12:49.276Z,3.97
2023-03-06T03:15:20.130Z,3.96
2023-03-06T03:17:51.019Z,3.95
2023-03-06T03:20:23.192Z,3.93
2023-03-06T03:22:55.129Z,3.92
2023-03-06T03:25:26.501Z,3.90
2023-03-06T03:27:57.388Z,3.87
2023-03-06T03:30:28.302Z,3.84
2023-03-06T03:32:59.136Z,3.71
2023-03-06T03:35:29.979Z,3.58
2023-03-06T03:38:01.116Z,3.54
2023-03-06T03:40:31.973Z,3.56
2023-03-06T03:43:02.884Z,3.60
2023-03-06T03:45:33.786Z,3.59
2023-03-06T03:48:04.679Z,3.60
2023-03-06T03:50:35.675Z,3.64
2023-03-06T03:53:06.653Z,3.64
2023-03-06T03:55:37.713Z,3.67
2023-03-06T03:58:08.591Z,3.69
2023-03-06T04:00:39.423Z,3.70
2023-03-06T04:03:10.331Z,3.71
2023-03-06T04:05:41.361Z,3.73
2023-03-06T04:08:12.201Z,3.71
2023-03-06T04:10:43.170Z,3.67
2023-03-06T04:13:14.127Z,3.64
2023-03-06T04:15:44.998Z,3.62
2023-03-06T04:18:17.148Z,3.60
2023-03-06T04:20:48.111Z,3.57
2023-03-06T04:23:19.017Z,3.57
2023-03-06T04:25:49.826Z,3.58
2023-03-06T04:28:20.869Z,3.58
2023-03-06T04:30:51.775Z,3.58
2023-03-06T04:33:22.612Z,3.55
2023-03-06T04:35:53.822Z,3.54
2023-03-06T04:38:24.866Z,3.58
2023-03-06T04:40:55.769Z,3.59
2023-03-06T04:43:26.821Z,3.55
2023-03-06T04:45:57.672Z,3.52
2023-03-06T04:48:28.597Z,3.51
2023-03-06T04:50:59.508Z,3.51
2023-03-06T04:53:30.273Z,3.49
2023-03-06T04:56:01.206Z,3.45
2023-03-06T04:58:32.155Z,3.43
2023-03-06T05:01:03.170Z,3.44
2023-03-06T05:03:35.032Z,3.47
2023-03-06T05:06:06.116Z,3.49
2023-03-06T05:08:37.092Z,3.52
2023-03-06T05:11:08.090Z,3.52
2023-03-06T05:13:38.895Z,3.51
2023-03-06T05:16:10.320Z,3.49
2023-03-06T05:18:41.078Z,3.52
2023-03-06T05:21:11.955Z,3.57
2023-03-06T05:23:42.822Z,3.59
2023-03-06T05:26:14.354Z,3.59
2023-03-06T05:28:45.078Z,3.53
2023-03-06T05:31:15.856Z,3.36
2023-03-06T05:33:46.598Z,3.22
2023-03-06T05:36:17.469Z,3.21
2023-03-06T05:38:48.326Z,3.18
2023-03-06T05:41:19.188Z,3.07
2023-03-06T05:43:50.107Z,2.97
2023-03-06T05:46:21.019Z,2.91
2023-03-06T05:48:53.275Z,2.92
2023-03-06T05:51:24.154Z,2.94
2023-03-06T05:53:55.092Z,2.90
2023-03-06T05:56:25.996Z,2.85
2023-03-06T05:58:56.846Z,2.87
2023-03-06T06:01:28.742Z,2.87
2023-03-06T06:03:59.564Z,2.86
2023-03-06T06:06:30.561Z,2.86
2023-03-06T06:09:01.360Z,2.84
2023-03-06T06:11:32.311Z,2.82
2023-03-06T06:14:03.297Z,2.85
2023-03-06T06:16:34.172Z,2.85
2023-03-06T06:19:05.161Z,2.81
2023-03-06T06:21:36.036Z,2.77
2023-03-06T06:24:07.378Z,2.73
2023-03-06T06:26:38.306Z,2.70
2023-03-06T06:29:09.264Z,2.67
2023-03-06T06:31:40.307Z,2.73
2023-03-06T06:34:11.548Z,2.82
2023-03-06T06:36:42.524Z,2.93
2023-03-06T06:39:15.467Z,3.07
2023-03-06T06:42:00.053Z,3.23
2023-03-06T06:44:37.133Z,3.47
2023-03-06T06:47:26.387Z,3.74
2023-03-06T06:49:57.880Z,4.04
2023-03-06T06:52:29.853Z,4.29
2023-03-06T06:55:00.877Z,4.52
2023-03-06T06:57:32.100Z,4.73
2023-03-06T07:00:03.061Z,4.92
2023-03-06T07:02:33.866Z,5.02
2023-03-06T07:05:05.664Z,5.04
2023-03-06T07:07:37.348Z,5.06
2023-03-06T07:10:09.213Z,5.06
2023-03-06T07:12:40.056Z,5.09
2023-03-06T07:15:12.733Z,5.18
2023-03-06T07:17:43.489Z,5.26
2023-03-06T07:20:14.488Z,5.35
2023-03-06T07:22:51.275Z,5.45
2023-03-06T07:25:22.974Z,5.50
2023-03-06T07:27:55.311Z,5.57
2023-03-06T07:30:26.261Z,5.63
2023-03-06T07:32:57.652Z,5.66
2023-03-06T07:35:28.851Z,5.60
2023-03-06T07:37:59.733Z,5.59
2023-03-06T07:40:30.535Z,5.57
2023-03-06T07:43:16.863Z,5.55
2023-03-06T07:45:49.576Z,5.55
2023-03-06T07:48:20.642Z,5.55
2023-03-06T07:50:57.871Z,5.57
2023-03-06T07:53:29.451Z,5.56
2023-03-06T07:56:00.410Z,5.59
2023-03-06T07:58:31.220Z,5.64
2023-03-06T08:01:05.642Z,5.70
2023-03-06T08:03:36.590Z,5.79
2023-03-06T08:06:08.462Z,5.88
2023-03-06T08:08:40.704Z,5.97
2023-03-06T08:11:11.604Z,5.95
2023-03-06T08:13:42.459Z,5.97
2023-03-06T08:16:13.347Z,6.01
2023-03-06T08:18:46.237Z,6.06
2023-03-06T08:21:18.117Z,6.13
2023-03-06T08:23:51.629Z,6.18
2023-03-06T08:26:25.584Z,6.24
2023-03-06T08:28:57.802Z,6.30
2023-03-06T08:31:29.953Z,6.39
2023-03-06T08:34:01.224Z,6.49
2023-03-06T08:36:32.188Z,6.57
2023-03-06T08:39:03.028Z,6.62
2023-03-06T08:41:33.886Z,6.64
2023-03-06T08:44:04.985Z,6.67
2023-03-06T08:46:35.995Z,6.66
2023-03-06T08:49:06.793Z,6.62
2023-03-06T08:51:37.712Z,6.64
2023-03-06T08:54:08.669Z,6.67
2023-03-06T08:56:39.333Z,6.72
2023-03-06T08:59:12.141Z,6.82
2023-03-06T09:01:43.229Z,6.85
2023-03-06T09:04:14.259Z,6.85
2023-03-06T09:06:45.338Z,6.81
2023-03-06T09:09:16.142Z,6.81
2023-03-06T09:11:46.958Z,6.88
2023-03-06T09:14:17.673Z,6.94
2023-03-06T09:16:48.505Z,7.01
2023-03-06T09:19:19.233Z,7.16
2023-03-06T09:21:50.047Z,7.34
2023-03-06T09:24:20.823Z,7.43
2023-03-06T09:26:51.852Z,7.43
2023-03-06T09:29:22.721Z,7.39
2023-03-06T09:31:53.457Z,7.29
2023-03-06T09:34:24.199Z,7.21
2023-03-06T09:36:57.167Z,7.17
2023-03-06T09:39:28.613Z,7.22
2023-03-06T09:41:59.649Z,7.25
2023-03-06T09:44:31.043Z,7.25
2023-03-06T09:47:20.433Z,7.27
2023-03-06T09:49:54.032Z,7.31
2023-03-06T09:52:30.952Z,7.25
2023-03-06T09:55:02.614Z,7.19
2023-03-06T09:57:35.424Z,7.26
2023-03-06T10:00:07.441Z,7.38
2023-03-06T10:02:40.489Z,7.43
2023-03-06T10:05:12.036Z,7.45
2023-03-06T10:07:47.099Z,7.52
2023-03-06T10:10:22.433Z,7.54
2023-03-06T10:12:57.803Z,7.60
2023-03-06T10:15:29.640Z,7.66
2023-03-06T10:18:00.413Z,7.71
2023-03-06T10:20:36.119Z,7.76
2023-03-06T10:23:15.262Z,7.86
2023-03-06T10:25:48.016Z,7.94
2023-03-06T10:28:19.216Z,8.01
2023-03-06T10:30:52.387Z,8.11
2023-03-06T10:33:30.888Z,8.18
2023-03-06T10:36:01.725Z,8.24
2023-03-06T10:38:38.505Z,8.38
2023-03-06T10:41:10.229Z,8.51
2023-03-06T10:43:41.608Z,8.74
2023-03-06T10:46:12.914Z,9.00
2023-03-06T10:48:43.810Z,9.32
2023-03-06T10:51:19.319Z,9.81
2023-03-06T10:53:52.242Z,10.48
2023-03-06T10:56:29.426Z,11.03
2023-03-06T10:59:12.400Z,11.41
2023-03-06T11:01:44.006Z,11.71
2023-03-06T11:04:25.612Z,12.04
2023-03-06T11:07:16.967Z,12.02
2023-03-06T11:09:59.950Z,11.99
2023-03-06T11:12:32.443Z,11.97
2023-03-06T11:15:11.153Z,11.89
2023-03-06T11:17:49.259Z,12.03
2023-03-06T11:20:20.908Z,12.20
2023-03-06T11:22:52.394Z,12.26
2023-03-06T11:25:23.716Z,12.35
2023-03-06T11:27:57.108Z,12.43
2023-03-06T11:30:29.517Z,12.41
2023-03-06T11:33:00.621Z,12.24
2023-03-06T11:35:35.362Z,12.08
2023-03-06T11:38:07.207Z,11.92
2023-03-06T11:40:44.568Z,11.69
2023-03-06T11:43:18.732Z,11.61
2023-03-06T11:45:50.441Z,11.58
2023-03-06T11:48:23.615Z,11.53
2023-03-06T11:50:55.051Z,11.44
2023-03-06T11:53:29.075Z,11.37
2023-03-06T11:56:01.592Z,11.32
2023-03-06T11:58:49.678Z,11.20
2023-03-06T12:01:22.552Z,11.06
2023-03-06T12:03:59.151Z,11.10
2023-03-06T12:06:33.145Z,11.15
2023-03-06T12:09:07.564Z,11.17
2023-03-06T12:11:39.441Z,11.19
2023-03-06T12:14:19.701Z,11.05
2023-03-06T12:16:59.879Z,10.84
2023-03-06T12:19:34.690Z,10.77
2023-03-06T12:22:10.410Z,10.69
2023-03-06T12:24:49.908Z,10.60
2023-03-06T12:27:24.677Z,10.51
2023-03-06T12:30:12.725Z,10.57
2023-03-06T12:32:45.540Z,10.61
2023-03-06T12:35:23.851Z,10.68
2023-03-06T12:37:56.915Z,10.80
2023-03-06T12:40:43.981Z,10.88
2023-03-06T12:43:23.613Z,10.93
2023-03-06T12:45:54.389Z,10.97
2023-03-06T12:48:27.447Z,10.93
2023-03-06T12:50:58.402Z,11.01
2023-03-06T12:53:29.967Z,11.08
2023-03-06T12:56:01.911Z,11.05
2023-03-06T12:58:43.896Z,11.07
2023-03-06T13:01:15.586Z,11.09
2023-03-06T13:03:59.968Z,10.89
2023-03-06T13:06:39.032Z,10.79
2023-03-06T13:09:19.436Z,10.86
2023-03-06T13:12:06.311Z,11.29
2023-03-06T13:14:54.839Z,11.72
2023-03-06T13:17:27.307Z,11.84
2023-03-06T13:20:14.654Z,12.04
2023-03-06T13:22:45.830Z,12.35
2023-03-06T13:25:30.008Z,12.46
2023-03-06T13:28:04.517Z,12.41
2023-03-06T13:30:45.290Z,12.40
2023-03-06T13:33:34.438Z,12.38
2023-03-06T13:36:18.461Z,12.34
2023-03-06T13:39:02.467Z,12.33
2023-03-06T13:41:38.527Z,12.37
2023-03-06T13:44:34.902Z,12.35
2023-03-06T13:47:06.406Z,12.46
2023-03-06T13:49:37.541Z,12.41
2023-03-06T13:52:10.225Z,12.41
2023-03-06T13:54:45.157Z,12.45
2023-03-06T13:57:41.778Z,12.51
2023-03-06T14:00:28.911Z,12.53
2023-03-06T14:03:06.631Z,12.36
2023-03-06T14:05:43.641Z,12.24
2023-03-06T14:08:15.265Z,12.20
2023-03-06T14:10:46.909Z,12.21
2023-03-06T14:13:18.927Z,12.31
2023-03-06T14:15:50.259Z,12.34
2023-03-06T14:18:23.927Z,12.19
2023-03-06T14:20:57.049Z,12.01
2023-03-06T14:23:30.059Z,11.94
2023-03-06T14:26:02.391Z,11.85
2023-03-06T14:28:34.220Z,11.78
2023-03-06T14:31:06.025Z,11.84
2023-03-06T14:33:38.848Z,11.96
2023-03-06T14:36:14.598Z,12.03
2023-03-06T14:38:47.069Z,12.09
2023-03-06T14:41:24.801Z,12.14
2023-03-06T14:43:55.668Z,12.19
2023-03-06T14:46:26.591Z,12.19
2023-03-06T14:49:00.008Z,12.25
2023-03-06T14:51:33.510Z,12.29
2023-03-06T14:54:04.355Z,12.24
2023-03-06T14:56:35.448Z,12.20
2023-03-06T14:59:06.441Z,12.10
2023-03-06T15:01:38.171Z,12.08
2023-03-06T15:04:13.885Z,12.03
2023-03-06T15:06:46.649Z,12.02
2023-03-06T15:09:20.575Z,11.97
2023-03-06T15:12:00.754Z,11.95
2023-03-06T15:14:33.154Z,11.98
2023-03-06T15:17:26.312Z,11.99
2023-03-06T15:19:58.067Z,11.94
2023-03-06T15:22:30.973Z,11.91
2023-03-06T15:28:24.426Z,11.81
2023-03-06T15:31:08.718Z,11.76
2023-03-06T15:33:39.571Z,11.67
2023-03-06T15:36:19.991Z,11.61
2023-03-06T15:38:50.878Z,11.62
2023-03-06T15:41:23.938Z,11.64
2023-03-06T15:43:54.781Z,11.61
2023-03-06T15:46:25.749Z,11.58
2023-03-06T15:49:00.642Z,11.53
2023-03-06T15:51:33.236Z,11.46
2023-03-06T15:54:11.857Z,11.41
2023-03-06T15:56:44.648Z,11.39
2023-03-06T15:59:18.313Z,11.38
2023-03-06T16:01:49.203Z,11.38
2023-03-06T16:04:20.241Z,11.38
2023-03-06T16:06:51.319Z,11.34
2023-03-06T16:13:00.391Z,11.29
2023-03-06T16:15:52.929Z,11.30
2023-03-06T16:18:56.054Z,11.29
2023-03-06T16:21:28.586Z,11.27
2023-03-06T16:24:05.518Z,11.24
2023-03-06T16:26:37.466Z,11.20
2023-03-06T16:29:11.412Z,11.17
2023-03-06T16:31:42.743Z,11.14
2023-03-06T16:37:18.864Z,11.00
2023-03-06T16:39:54.124Z,10.96
2023-03-06T16:42:27.883Z,10.91
2023-03-06T16:44:59.180Z,10.87
2023-03-06T16:47:30.436Z,10.80
2023-03-06T16:50:02.575Z,10.71
2023-03-06T16:52:40.625Z,10.65
2023-03-06T16:55:17.262Z,10.59
2023-03-06T17:07:38.048Z,10.44
2023-03-06T17:10:15.638Z,10.40
2023-03-06T17:13:07.800Z,10.36
2023-03-06T17:16:54.101Z,10.31
2023-03-06T17:19:02.194Z,10.24
2023-03-06T17:21:39.584Z,10.18
2023-03-06T17:24:11.070Z,10.12
2023-03-06T17:26:45.508Z,10.05
2023-03-06T17:30:23.670Z,9.98
2023-03-06T17:32:33.682Z,9.90
2023-03-06T17:35:25.578Z,9.87
2023-03-06T17:37:57.948Z,9.80
2023-03-06T17:40:29.872Z,9.73
2023-03-06T17:43:04.594Z,9.69
2023-03-06T17:45:38.340Z,9.65
2023-03-06T17:48:09.318Z,9.61
2023-03-06T17:50:40.337Z,9.58
2023-03-06T17:53:11.229Z,9.52
2023-03-06T17:55:42.377Z,9.46
2023-03-06T18:01:18.913Z,9.35
2023-03-06T18:03:50.472Z,9.31
2023-03-06T18:06:23.000Z,9.27
2023-03-06T18:08:56.955Z,9.21
2023-03-06T18:11:28.278Z,9.18
2023-03-06T18:13:59.546Z,9.15
2023-03-06T18:16:30.693Z,9.12
2023-03-06T18:19:01.575Z,9.08
2023-03-06T18:21:32.362Z,8.99
2023-03-06T18:24:03.319Z,8.93
2023-03-06T18:26:34.369Z,8.89
2023-03-06T18:29:05.622Z,8.85
2023-03-06T18:31:37.023Z,8.79
2023-03-06T18:34:08.531Z,8.74
2023-03-06T18:36:39.533Z,8.70
2023-03-06T18:39:10.899Z,8.68
2023-03-06T18:41:41.913Z,8.64
2023-03-06T18:44:15.506Z,8.60
2023-03-06T18:46:46.399Z,8.57
2023-03-06T18:49:19.196Z,8.54
2023-03-06T18:55:06.022Z,8.48
2023-03-06T18:57:40.194Z,8.44
2023-03-06T19:00:14.181Z,8.43
2023-03-06T19:02:58.671Z,8.39
2023-03-06T19:05:51.841Z,8.27
2023-03-06T19:08:37.112Z,8.15
2023-03-06T19:11:09.923Z,8.09
2023-03-06T19:13:41.054Z,8.07
2023-03-06T19:16:12.170Z,8.06
2023-03-06T19:18:44.790Z,8.05
2023-03-06T19:21:16.968Z,8.05
2023-03-06T19:23:48.139Z,8.05
2023-03-06T19:41:57.284Z,7.88
2023-03-06T19:44:28.232Z,7.81
2023-03-06T19:46:59.745Z,7.81
2023-03-06T19:49:30.663Z,7.81
2023-03-06T19:52:01.645Z,7.79
2023-03-06T19:54:32.804Z,7.78
2023-03-06T19:57:04.320Z,7.78
2023-03-06T19:59:36.309Z,7.77
2023-03-06T20:02:23.714Z,7.76
2023-03-06T20:06:23.048Z,7.73
2023-03-06T20:08:48.289Z,7.70
2023-03-06T20:11:20.775Z,7.69
2023-03-06T20:13:54.073Z,7.68
2023-03-06T20:16:28.467Z,7.64
2023-03-06T20:19:01.235Z,7.57
2023-03-06T20:21:34.189Z,7.54
2023-03-06T20:24:06.336Z,7.51
2023-03-06T20:26:38.666Z,7.48
2023-03-06T20:29:09.984Z,7.40
2023-03-06T20:31:57.217Z,7.31
2023-03-06T20:34:28.422Z,7.24
2023-03-06T20:36:59.191Z,7.24
2023-03-06T20:39:29.929Z,7.25
2023-03-06T20:42:00.883Z,7.27
2023-03-06T20:44:32.002Z,7.33
2023-03-06T20:47:02.914Z,7.38
2023-03-06T20:49:35.286Z,7.45
2023-03-06T20:52:18.832Z,7.51
2023-03-06T21:00:51.077Z,7.57
2023-03-06T21:03:22.497Z,7.53
2023-03-06T21:05:53.559Z,7.58
2023-03-06T21:08:26.631Z,7.65
2023-03-06T21:10:58.388Z,7.73
2023-03-06T21:13:30.136Z,7.77
2023-03-06T21:16:00.910Z,7.83
2023-03-06T21:18:32.251Z,7.89
2023-03-06T21:21:04.030Z,7.94
2023-03-06T21:23:34.973Z,7.97
2023-03-06T21:26:05.913Z,8.01
2023-03-06T21:28:36.919Z,8.05
2023-03-06T21:31:11.964Z,8.10
2023-03-06T21:33:43.047Z,8.14
2023-03-06T21:36:16.204Z,8.15
2023-03-06T21:38:47.990Z,8.18
2023-03-06T21:41:19.588Z,8.20
2023-03-06T21:43:50.486Z,8.19
2023-03-06T21:46:22.913Z,8.22
2023-03-06T21:48:53.776Z,8.25
2023-03-06T21:51:25.143Z,8.23
2023-03-06T21:53:57.293Z,8.20
2023-03-06T21:56:28.661Z,8.18
2023-03-06T21:58:59.624Z,8.20
2023-03-06T22:01:30.557Z,8.21
2023-03-06T22:04:01.530Z,8.24
2023-03-06T22:06:32.651Z,8.25
2023-03-06T22:09:04.428Z,8.28
2023-03-06T22:11:37.271Z,8.30
2023-03-06T22:14:09.236Z,8.31
2023-03-06T22:16:40.388Z,8.34
2023-03-06T22:19:18.524Z,8.33
2023-03-06T22:21:49.456Z,8.31
2023-03-06T22:24:23.046Z,8.30
2023-03-06T22:26:54.839Z,8.27
2023-03-06T22:29:25.883Z,8.26
2023-03-06T22:31:57.157Z,8.27
2023-03-06T22:34:28.079Z,8.27
2023-03-06T22:36:58.976Z,8.25
2023-03-06T22:39:29.886Z,8.23
2023-03-06T22:42:00.665Z,8.24
2023-03-06T22:44:31.577Z,8.25
2023-03-06T22:47:02.395Z,8.25
2023-03-06T22:49:33.863Z,8.21
2023-03-06T22:52:04.679Z,8.17
2023-03-06T22:54:35.600Z,8.13
2023-03-06T22:57:06.463Z,8.07
2023-03-06T22:59:39.944Z,8.02
2023-03-06T23:02:13.969Z,7.99
2023-03-06T23:04:45.086Z,7.97
2023-03-06T23:07:15.828Z,7.95
2023-03-06T23:09:46.679Z,7.96
2023-03-06T23:12:17.496Z,7.98
2023-03-06T23:14:51.237Z,8.01
2023-03-06T23:17:22.119Z,8.03
2023-03-06T23:19:53.397Z,8.05
2023-03-06T23:22:24.405Z,8.05
2023-03-06T23:24:55.198Z,8.04
2023-03-06T23:27:26.090Z,8.03
2023-03-06T23:29:59.201Z,8.03
2023-03-06T23:32:30.344Z,8.03
2023-03-06T23:35:01.175Z,8.01
2023-03-06T23:37:32.049Z,8.01
2023-03-06T23:40:02.970Z,8.05
2023-03-06T23:42:33.969Z,8.08
2023-03-06T23:45:05.390Z,8.11
2023-03-06T23:47:38.424Z,8.12
2023-03-06T23:50:09.928Z,8.11
2023-03-06T23:52:40.791Z,8.10
2023-03-06T23:55:11.827Z,8.11
2023-03-06T23:57:42.672Z,8.10
